Terminal Aerodrome Forecast
Issued by NWS Buffalo, NY

Home | Current Version | Previous Version | Text Only | Print | Product List | Glossary On
Versions: 1 2 3 4 5 6 7 8 9 10 11 12 13 14 15 16 17 18 19 20 21 22 23 24 25 26 27 28 29
000
FTUS41 KBUF 040500
TAFROC
TAF
KROC 040520Z 0406/0506 25015G25KT 6SM -RA OVC015
     FM040800 25015G25KT P6SM SCT007 OVC015
     FM041100 26012G22KT P6SM SCT015 OVC025
     FM041400 26014G22KT P6SM SCT015 OVC035
     FM041800 27014G22KT P6SM BKN080
     FM050000 30010KT P6SM BKN120=

USA.gov is the U.S. government's official web portal to all federal, state and local government web resources and services.